createdAt,value
2023-01-15T00:02:22.165Z,98222.97
2023-01-15T00:04:51.903Z,98225.53
2023-01-15T00:07:18.676Z,98223.94
2023-01-15T00:09:45.498Z,98222.31
2023-01-15T00:12:17.905Z,98232.44
2023-01-15T00:14:45.615Z,98230.84
2023-01-15T00:17:12.416Z,98230.88
2023-01-15T00:19:42.772Z,98232.56
2023-01-15T00:22:14.324Z,98231.75
2023-01-15T00:25:04.055Z,98237.78
2023-01-15T00:27:44.404Z,98223.53
2023-01-15T00:30:21.913Z,98203.41
2023-01-15T00:32:53.794Z,98204.25
2023-01-15T00:35:23.541Z,98201.72
2023-01-15T00:37:51.215Z,98206.81
2023-01-15T00:40:20.167Z,98205.88
2023-01-15T00:42:54.133Z,98188.22
2023-01-15T00:45:21.871Z,98178.16
2023-01-15T00:47:50.519Z,98165.53
2023-01-15T00:50:17.468Z,98179.84
2023-01-15T00:52:44.386Z,98182.38
2023-01-15T00:55:11.213Z,98173.91
2023-01-15T00:57:38.172Z,98157.13
2023-01-15T01:00:06.356Z,98167.19
2023-01-15T01:02:33.360Z,98172.28
2023-01-15T01:05:00.232Z,98160.47
2023-01-15T01:07:27.063Z,98169.72
2023-01-15T01:09:53.853Z,98156.22
2023-01-15T01:12:21.402Z,98163.78
2023-01-15T01:14:48.187Z,98163.75
2023-01-15T01:17:14.975Z,98159.50
2023-01-15T01:19:41.856Z,98160.28
2023-01-15T01:22:08.668Z,98151.06
2023-01-15T01:24:35.530Z,98155.22
2023-01-15T01:27:12.249Z,98168.69
2023-01-15T01:30:17.175Z,98173.66
2023-01-15T01:34:01.052Z,98187.16
2023-01-15T01:36:37.111Z,98174.66
2023-01-15T01:41:34.483Z,98167.03
2023-01-15T01:44:22.341Z,98178.69
2023-01-15T01:46:49.181Z,98179.53
2023-01-15T01:49:15.936Z,98182.88
2023-01-15T01:52:06.598Z,98198.03
2023-01-15T01:54:38.510Z,98209.84
2023-01-15T01:57:08.573Z,98209.81
2023-01-15T01:59:37.985Z,98209.78
2023-01-15T02:02:05.521Z,98187.91
2023-01-15T02:04:33.491Z,98195.47
2023-01-15T02:07:02.147Z,98198.00
2023-01-15T02:09:29.094Z,98187.06
2023-01-15T02:12:06.394Z,98203.91
2023-01-15T02:14:51.160Z,98208.97
2023-01-15T02:17:41.928Z,98199.75
2023-01-15T02:20:37.329Z,98185.38
2023-01-15T02:23:21.763Z,98182.03
2023-01-15T02:26:32.454Z,98178.66
2023-01-15T02:29:02.409Z,98193.06
2023-01-15T02:31:43.426Z,98198.06
2023-01-15T02:34:18.716Z,98178.72
2023-01-15T02:36:54.599Z,98171.97
2023-01-15T02:39:25.040Z,98179.53
2023-01-15T02:41:57.177Z,98171.88
2023-01-15T02:44:29.463Z,98177.72
2023-01-15T02:46:59.445Z,98181.06
2023-01-15T02:49:26.764Z,98181.06
2023-01-15T02:52:09.989Z,98168.38
2023-01-15T02:54:47.819Z,98170.88
2023-01-15T02:57:18.531Z,98164.97
2023-01-15T02:59:49.947Z,98165.78
2023-01-15T03:02:26.904Z,98176.72
2023-01-15T03:05:18.260Z,98178.34
2023-01-15T03:07:52.900Z,98170.00
2023-01-15T03:10:24.829Z,98171.63
2023-01-15T03:13:04.156Z,98166.53
2023-01-15T03:16:09.739Z,98146.38
2023-01-15T03:18:53.252Z,98145.56
2023-01-15T03:21:31.283Z,98156.47
2023-01-15T03:24:06.427Z,98164.06
2023-01-15T03:26:33.343Z,98157.28
2023-01-15T03:29:03.564Z,98165.72
2023-01-15T03:31:30.590Z,98170.78
2023-01-15T03:33:57.508Z,98160.66
2023-01-15T03:36:24.259Z,98168.25
2023-01-15T03:38:51.904Z,98164.00
2023-01-15T03:41:35.381Z,98163.16
2023-01-15T03:44:26.754Z,98164.84
2023-01-15T03:47:12.037Z,98166.56
2023-01-15T03:49:47.549Z,98160.78
2023-01-15T03:52:32.544Z,98165.03
2023-01-15T03:55:36.384Z,98164.19
2023-01-15T03:58:20.068Z,98151.59
2023-01-15T04:00:56.052Z,98140.66
2023-01-15T04:03:25.678Z,98141.50
2023-01-15T04:05:57.666Z,98145.59
2023-01-15T04:08:28.210Z,98149.78
2023-01-15T04:11:01.803Z,98137.16
2023-01-15T04:13:31.400Z,98140.47
2023-01-15T04:20:48.637Z,98149.03
2023-01-15T04:24:24.750Z,98165.06
2023-01-15T04:27:35.301Z,98154.13
2023-01-15T04:30:02.454Z,98150.75
2023-01-15T04:32:29.288Z,98149.03
2023-01-15T04:34:56.043Z,98139.69
2023-01-15T04:37:22.791Z,98151.41
2023-01-15T04:39:49.607Z,98148.00
2023-01-15T04:42:34.668Z,98162.31
2023-01-15T04:45:01.410Z,98170.78
2023-01-15T04:47:31.449Z,98165.75
2023-01-15T04:49:58.215Z,98169.09
2023-01-15T04:52:25.023Z,98178.34
2023-01-15T04:54:54.840Z,98165.72
2023-01-15T04:57:21.810Z,98177.50
2023-01-15T04:59:48.630Z,98174.16
2023-01-15T05:02:15.827Z,98174.16
2023-01-15T05:04:42.930Z,98170.75
2023-01-15T05:07:10.197Z,98189.28
2023-01-15T05:09:37.333Z,98172.44
2023-01-15T05:12:04.640Z,98187.53
2023-01-15T05:14:31.463Z,98188.41
2023-01-15T05:16:58.208Z,98190.06
2023-01-15T05:19:24.985Z,98193.38
2023-01-15T05:21:51.729Z,98187.50
2023-01-15T05:24:19.573Z,98182.44
2023-01-15T05:26:46.468Z,98190.00
2023-01-15T05:29:13.999Z,98171.47
2023-01-15T05:31:42.642Z,98173.97
2023-01-15T05:34:10.368Z,98166.47
2023-01-15T05:36:37.799Z,98167.31
2023-01-15T05:39:05.178Z,98173.25
2023-01-15T05:41:50.050Z,98156.47
2023-01-15T05:44:29.768Z,98154.88
2023-01-15T05:47:02.426Z,98161.69
2023-01-15T05:49:31.335Z,98174.34
2023-01-15T05:52:00.751Z,98181.94
2023-01-15T05:54:33.899Z,98178.63
2023-01-15T05:57:01.688Z,98182.88
2023-01-15T05:59:31.105Z,98187.91
2023-01-15T06:01:58.333Z,98183.78
2023-01-15T06:04:25.558Z,98199.78
2023-01-15T06:06:56.626Z,98195.63
2023-01-15T06:09:24.558Z,98193.97
2023-01-15T06:15:00.691Z,98200.81
2023-01-15T06:17:27.473Z,98205.84
2023-01-15T06:20:36.119Z,98210.09
2023-01-15T06:23:20.651Z,98204.25
2023-01-15T06:27:04.194Z,98211.78
2023-01-15T06:29:28.759Z,98215.13
2023-01-15T06:31:55.514Z,98210.06
2023-01-15T06:34:22.245Z,98218.44
2023-01-15T06:36:48.983Z,98219.22
2023-01-15T06:39:16.354Z,98211.66
2023-01-15T06:42:01.583Z,98215.81
2023-01-15T06:44:47.163Z,98219.22
2023-01-15T06:47:21.589Z,98219.22
2023-01-15T06:49:52.526Z,98220.88
2023-01-15T06:52:19.302Z,98230.94
2023-01-15T06:54:46.624Z,98222.50
2023-01-15T06:57:13.652Z,98225.81
2023-01-15T06:59:40.389Z,98224.94
2023-01-15T07:02:07.392Z,98222.44
2023-01-15T07:04:34.249Z,98221.59
2023-01-15T07:07:01.043Z,98231.69
2023-01-15T07:09:27.891Z,98230.84
2023-01-15T07:11:54.717Z,98233.34
2023-01-15T07:14:28.129Z,98245.13
2023-01-15T07:16:55.669Z,98243.47
2023-01-15T07:19:22.583Z,98247.66
2023-01-15T07:21:49.353Z,98252.66
2023-01-15T07:24:17.318Z,98245.94
2023-01-15T07:26:45.713Z,98261.88
2023-01-15T07:29:13.633Z,98258.56
2023-01-15T07:31:41.382Z,98261.09
2023-01-15T07:34:08.729Z,98265.41
2023-01-15T07:36:36.150Z,98279.75
2023-01-15T07:39:07.934Z,98289.03
2023-01-15T07:41:53.439Z,98313.38
2023-01-15T07:44:39.144Z,98311.91
2023-01-15T07:47:39.019Z,98317.25
2023-01-15T07:50:11.291Z,98320.13
2023-01-15T07:52:38.117Z,98314.47
2023-01-15T07:55:05.727Z,98317.19
2023-01-15T07:57:32.579Z,98312.31
2023-01-15T07:59:59.313Z,98315.81
2023-01-15T08:02:27.216Z,98300.78
2023-01-15T08:04:53.954Z,98332.78
2023-01-15T08:07:20.704Z,98338.72
2023-01-15T08:09:47.432Z,98342.09
2023-01-15T08:12:33.021Z,98338.72
2023-01-15T08:15:15.037Z,98333.69
2023-01-15T08:17:47.991Z,98332.06
2023-01-15T08:20:21.976Z,98338.81
2023-01-15T08:22:48.998Z,98340.47
2023-01-15T08:25:22.016Z,98340.41
2023-01-15T08:27:48.984Z,98349.63
2023-01-15T08:30:24.356Z,98357.13
2023-01-15T08:32:51.158Z,98341.16
2023-01-15T08:35:18.051Z,98346.19
2023-01-15T08:37:44.977Z,98350.34
2023-01-15T08:40:28.223Z,98336.88
2023-01-15T08:42:56.968Z,98362.06
2023-01-15T08:45:48.239Z,98354.41
2023-01-15T08:48:40.141Z,98356.03
2023-01-15T08:51:10.603Z,98355.13
2023-01-15T08:53:38.501Z,98345.00
2023-01-15T09:15:17.102Z,98333.84
2023-01-15T09:17:44.116Z,98330.34
2023-01-15T09:20:21.335Z,98337.88
2023-01-15T09:23:06.483Z,98327.69
2023-01-15T09:26:06.835Z,98334.78
2023-01-15T09:29:34.591Z,98321.84
2023-01-15T09:33:38.849Z,98346.03
2023-01-15T09:35:39.405Z,98347.09
2023-01-15T09:39:05.805Z,98349.13
2023-01-15T09:46:08.558Z,98342.59
2023-01-15T09:49:22.109Z,98334.50
2023-01-15T09:52:41.190Z,98332.69
2023-01-15T09:55:27.454Z,98346.13
2023-01-15T09:57:59.113Z,98323.13
2023-01-15T10:00:33.259Z,98333.22
2023-01-15T10:03:13.479Z,98329.78
2023-01-15T10:06:19.766Z,98337.41
2023-01-15T10:12:35.364Z,98334.16
2023-01-15T10:15:15.706Z,98346.13
2023-01-15T10:22:15.785Z,98345.09
2023-01-15T10:25:05.809Z,98346.63
2023-01-15T10:27:33.563Z,98347.97
2023-01-15T10:41:02.236Z,98359.22
2023-01-15T10:43:52.316Z,98362.47
2023-01-15T10:46:33.539Z,98349.50
2023-01-15T10:49:10.925Z,98344.47
2023-01-15T10:52:03.021Z,98342.06
2023-01-15T10:54:40.232Z,98351.41
2023-01-15T10:57:56.504Z,98339.38
2023-01-15T11:00:28.728Z,98358.19
2023-01-15T11:03:08.708Z,98355.13
2023-01-15T11:05:36.448Z,98358.63
2023-01-15T11:08:45.306Z,98349.53
2023-01-15T11:10:56.099Z,98348.41
2023-01-15T11:13:45.580Z,98342.78
2023-01-15T11:16:37.899Z,98356.16
2023-01-15T11:19:26.155Z,98343.00
2023-01-15T11:21:54.610Z,98357.59
2023-01-15T11:24:21.392Z,98361.84
2023-01-15T11:26:54.673Z,98367.56
2023-01-15T11:29:33.633Z,98374.94
2023-01-15T11:32:00.396Z,98366.19
2023-01-15T11:34:27.187Z,98359.97
2023-01-15T11:37:06.152Z,98350.41
2023-01-15T11:39:33.514Z,98350.94
2023-01-15T11:42:34.453Z,98347.88
2023-01-15T11:45:19.678Z,98339.88
2023-01-15T11:48:15.126Z,98328.41
2023-01-15T11:51:12.148Z,98330.41
2023-01-15T11:53:50.326Z,98326.50
2023-01-15T11:56:23.178Z,98295.47
2023-01-15T11:59:04.540Z,98327.75
2023-01-15T12:01:50.239Z,98320.41
2023-01-15T12:05:01.203Z,98323.13
2023-01-15T12:07:29.936Z,98323.34
2023-01-15T12:10:39.988Z,98306.47
2023-01-15T12:13:25.315Z,98325.09
2023-01-15T12:16:17.377Z,98321.75
2023-01-15T12:19:22.645Z,98323.47
2023-01-15T12:22:39.043Z,98327.75
2023-01-15T12:26:05.307Z,98328.50
2023-01-15T12:28:53.438Z,98323.31
2023-01-15T12:31:54.064Z,98302.72
2023-01-15T12:34:42.184Z,98324.47
2023-01-15T12:37:32.518Z,98309.94
2023-01-15T12:40:41.453Z,98318.19
2023-01-15T12:43:40.464Z,98309.66
2023-01-15T12:46:31.301Z,98308.75
2023-01-15T12:49:52.945Z,98307.19
2023-01-15T12:52:26.949Z,98308.09
2023-01-15T12:55:22.237Z,98324.97
2023-01-15T12:57:54.931Z,98329.22
2023-01-15T13:00:34.789Z,98325.00
2023-01-15T13:03:30.278Z,98322.44
2023-01-15T13:06:05.390Z,98308.16
2023-01-15T13:08:59.326Z,98310.81
2023-01-15T13:11:26.688Z,98310.91
2023-01-15T13:13:59.155Z,98305.88
2023-01-15T13:16:54.528Z,98305.13
2023-01-15T13:19:40.387Z,98312.00
2023-01-15T13:22:25.170Z,98308.72
2023-01-15T13:25:20.557Z,98319.72
2023-01-15T13:28:03.636Z,98324.03
2023-01-15T13:30:56.079Z,98319.88
2023-01-15T13:33:46.151Z,98334.28
2023-01-15T13:36:30.203Z,98330.84
2023-01-15T13:39:02.824Z,98336.78
2023-01-15T13:41:52.632Z,98341.84
2023-01-15T13:44:23.489Z,98338.53
2023-01-15T13:47:10.275Z,98346.22
2023-01-15T13:49:50.602Z,98346.97
2023-01-15T13:52:31.646Z,98348.63
2023-01-15T13:55:13.084Z,98350.25
2023-01-15T13:57:42.242Z,98361.19
2023-01-15T14:00:36.514Z,98340.94
2023-01-15T14:03:31.912Z,98352.84
2023-01-15T14:06:02.917Z,98358.91
2023-01-15T14:08:45.504Z,98349.63
2023-01-15T14:11:37.072Z,98353.09
2023-01-15T14:14:57.788Z,98359.13
2023-01-15T14:17:57.548Z,98359.31
2023-01-15T14:20:45.594Z,98367.75
2023-01-15T14:23:40.449Z,98374.63
2023-01-15T14:26:32.282Z,98373.78
2023-01-15T14:29:53.346Z,98369.63
2023-01-15T14:33:03.302Z,98375.59
2023-01-15T14:35:37.697Z,98376.50
2023-01-15T14:38:12.298Z,98365.56
2023-01-15T14:41:03.130Z,98366.41
2023-01-15T14:43:36.125Z,98380.75
2023-01-15T14:46:41.905Z,98368.91
2023-01-15T14:49:42.126Z,98366.38
2023-01-15T14:52:09.766Z,98371.50
2023-01-15T14:54:39.377Z,98384.16
2023-01-15T14:57:09.095Z,98371.56
2023-01-15T14:59:53.343Z,98375.84
2023-01-15T15:02:33.277Z,98383.50
2023-01-15T15:05:01.768Z,98379.38
2023-01-15T15:07:43.547Z,98391.25
2023-01-15T15:10:17.112Z,98390.47
2023-01-15T15:12:52.210Z,98384.66
2023-01-15T15:15:24.923Z,98388.94
2023-01-15T15:18:13.971Z,98379.72
2023-01-15T15:20:58.384Z,98380.63
2023-01-15T15:23:46.981Z,98388.31
2023-01-15T15:26:32.875Z,98387.50
2023-01-15T15:29:10.114Z,98375.75
2023-01-15T15:31:58.126Z,98371.59
2023-01-15T15:34:37.967Z,98375.81
2023-01-15T15:37:14.854Z,98378.38
2023-01-15T15:40:02.744Z,98372.47
2023-01-15T15:42:56.650Z,98379.19
2023-01-15T15:45:49.139Z,98366.66
2023-01-15T15:48:38.605Z,98377.63
2023-01-15T15:51:22.959Z,98367.56
2023-01-15T15:53:49.670Z,98370.03
2023-01-15T15:56:17.638Z,98361.56
2023-01-15T15:58:45.869Z,98362.41
2023-01-15T16:01:14.061Z,98364.06
2023-01-15T16:03:48.590Z,98358.94
2023-01-15T16:06:27.360Z,98362.34
2023-01-15T16:09:06.310Z,98356.47
2023-01-15T16:11:34.394Z,98352.31
2023-01-15T16:14:07.949Z,98354.84
2023-01-15T16:16:35.114Z,98353.22
2023-01-15T16:19:03.280Z,98349.03
2023-01-15T16:21:35.349Z,98348.22
2023-01-15T16:24:25.550Z,98346.53
2023-01-15T16:27:08.687Z,98346.63
2023-01-15T16:29:36.152Z,98337.44
2023-01-15T16:32:14.324Z,98326.50
2023-01-15T16:34:41.529Z,98343.34
2023-01-15T16:37:30.530Z,98340.06
2023-01-15T16:40:01.195Z,98338.41
2023-01-15T16:42:35.030Z,98330.00
2023-01-15T16:45:22.494Z,98328.34
2023-01-15T16:48:07.837Z,98344.38
2023-01-15T16:50:37.267Z,98334.28
2023-01-15T16:53:06.488Z,98346.94
2023-01-15T16:55:38.699Z,98361.28
2023-01-15T16:58:20.286Z,98346.22
2023-01-15T17:00:53.439Z,98353.00
2023-01-15T17:03:26.534Z,98358.09
2023-01-15T17:06:03.911Z,98361.53
2023-01-15T17:08:39.988Z,98363.28
2023-01-15T17:11:35.999Z,98363.38
2023-01-15T17:14:19.984Z,98370.16
2023-01-15T17:16:47.058Z,98359.22
2023-01-15T17:19:15.291Z,98360.94
2023-01-15T17:21:45.132Z,98366.84
2023-01-15T17:24:12.211Z,98360.91
2023-01-15T17:26:39.255Z,98346.53
2023-01-15T17:29:05.969Z,98354.06
2023-01-15T17:31:34.610Z,98336.38
2023-01-15T17:34:03.457Z,98338.13
2023-01-15T17:36:31.170Z,98339.91
2023-01-15T17:38:58.120Z,98341.63
2023-01-15T17:41:24.976Z,98333.25
2023-01-15T17:43:51.887Z,98330.75
2023-01-15T17:46:18.721Z,98329.13
2023-01-15T17:48:45.746Z,98327.50
2023-01-15T17:51:15.346Z,98330.94
2023-01-15T17:53:42.682Z,98331.84
2023-01-15T17:56:28.184Z,98334.44
2023-01-15T17:59:13.603Z,98317.72
2023-01-15T18:02:05.558Z,98308.53
2023-01-15T18:05:00.487Z,98322.91
2023-01-15T18:07:37.434Z,98317.13
2023-01-15T18:10:05.385Z,98312.13
2023-01-15T18:12:32.144Z,98306.25
2023-01-15T18:14:58.958Z,98306.25
2023-01-15T18:17:25.693Z,98312.97
2023-01-15T18:19:53.889Z,98318.00
2023-01-15T18:22:21.690Z,98313.78
2023-01-15T18:24:48.438Z,98307.94
2023-01-15T18:27:15.158Z,98312.19
2023-01-15T18:29:41.863Z,98307.16
2023-01-15T18:32:09.325Z,98303.81
2023-01-15T18:34:36.963Z,98300.47
2023-01-15T18:37:08.118Z,98305.53
2023-01-15T18:39:37.028Z,98313.13
2023-01-15T18:42:04.384Z,98306.38
2023-01-15T18:44:49.681Z,98300.47
2023-01-15T18:48:02.958Z,98293.78
2023-01-15T19:58:31.867Z,98229.72
2023-01-15T20:00:58.678Z,98224.59
2023-01-15T20:03:25.471Z,98217.75
2023-01-15T20:05:52.226Z,98217.69
2023-01-15T20:08:19.034Z,98210.13
2023-01-15T20:10:48.840Z,98205.00
2023-01-15T20:13:41.464Z,98201.63
2023-01-15T20:16:12.104Z,98200.81
2023-01-15T20:18:39.885Z,98194.09
2023-01-15T20:21:07.887Z,98202.47
2023-01-15T20:23:36.500Z,98196.59
2023-01-15T20:26:10.530Z,98189.84
2023-01-15T20:28:39.964Z,98192.38
2023-01-15T20:31:07.233Z,98196.56
2023-01-15T20:33:33.940Z,98193.97
2023-01-15T20:36:04.562Z,98186.38
2023-01-15T20:38:31.649Z,98189.69
2023-01-15T20:41:18.347Z,98176.25
2023-01-15T20:44:03.860Z,98175.38
2023-01-15T20:46:30.610Z,98161.94
2023-01-15T20:49:15.949Z,98131.63
2023-01-15T20:51:42.659Z,98140.94
2023-01-15T20:54:09.368Z,98151.94
2023-01-15T20:56:36.098Z,98151.09
2023-01-15T20:59:02.814Z,98146.03
2023-01-15T21:01:29.777Z,98148.59
2023-01-15T21:03:56.552Z,98145.28
2023-01-15T21:06:24.581Z,98139.47
2023-01-15T21:08:51.327Z,98133.66
2023-01-15T21:11:18.471Z,98136.22
2023-01-15T21:13:45.878Z,98125.38
2023-01-15T21:16:14.957Z,98123.00
2023-01-15T21:18:44.994Z,98112.94
2023-01-15T21:21:15.706Z,98113.81
2023-01-15T21:23:45.369Z,98114.00
2023-01-15T21:26:14.201Z,98101.41
2023-01-15T21:28:41.537Z,98104.81
2023-01-15T21:31:10.226Z,98086.41
2023-01-15T21:33:37.813Z,98087.34
2023-01-15T21:36:14.380Z,98093.25
2023-01-15T21:38:41.764Z,98077.38
2023-01-15T21:41:14.540Z,98073.22
2023-01-15T21:44:01.707Z,98068.25
2023-01-15T21:46:29.247Z,98064.94
2023-01-15T21:48:58.591Z,98057.38
2023-01-15T21:51:26.868Z,98048.97
2023-01-15T21:53:54.108Z,98044.75
2023-01-15T21:56:21.055Z,98039.69
2023-01-15T21:58:47.794Z,98034.59
2023-01-15T22:01:18.015Z,98050.59
2023-01-15T22:03:45.856Z,98042.16
2023-01-15T22:06:12.990Z,98039.66
2023-01-15T22:08:40.067Z,98033.78
2023-01-15T22:11:10.088Z,98037.94
2023-01-15T22:13:38.108Z,98025.38
2023-01-15T22:16:05.322Z,98032.91
2023-01-15T22:18:33.951Z,98016.06
2023-01-15T22:21:05.207Z,98024.41
2023-01-15T22:23:34.134Z,98014.28
2023-01-15T22:26:00.897Z,98010.91
2023-01-15T22:28:27.594Z,98009.16
2023-01-15T22:30:54.395Z,98010.84
2023-01-15T22:33:21.463Z,98004.91
2023-01-15T22:35:58.090Z,98009.09
2023-01-15T22:38:24.926Z,98005.72
2023-01-15T22:40:56.803Z,97999.81
2023-01-15T22:43:23.488Z,98001.41
2023-01-15T22:45:50.418Z,98005.56
2023-01-15T22:48:17.174Z,97995.44
2023-01-15T22:50:43.885Z,97986.97
2023-01-15T22:53:10.602Z,97995.28
2023-01-15T22:55:37.341Z,97995.25
2023-01-15T22:58:04.129Z,97985.22
2023-01-15T23:00:31.864Z,97983.59
2023-01-15T23:03:05.149Z,97978.63
2023-01-15T23:05:40.035Z,97980.34
2023-01-15T23:08:07.645Z,97970.28
2023-01-15T23:10:34.418Z,97959.41
2023-01-15T23:13:01.159Z,97955.22
2023-01-15T23:15:27.941Z,97953.59
2023-01-15T23:17:54.768Z,97952.78
2023-01-15T23:20:21.549Z,97951.06
2023-01-15T23:22:48.312Z,97943.53
2023-01-15T23:25:15.084Z,97945.25
2023-01-15T23:27:41.869Z,97936.88
2023-01-15T23:30:09.894Z,97938.56
2023-01-15T23:32:39.438Z,97941.09
2023-01-15T23:35:08.274Z,97934.41
2023-01-15T23:37:35.049Z,97927.66
2023-01-15T23:40:01.826Z,97930.19
2023-01-15T23:42:47.218Z,97931.78
2023-01-15T23:45:32.436Z,97924.25
2023-01-15T23:47:59.139Z,97926.84
2023-01-15T23:50:25.945Z,97909.19
2023-01-15T23:52:52.660Z,97902.44
2023-01-15T23:55:19.441Z,97904.16
2023-01-15T23:57:46.157Z,97901.63
